createdAt,value
2022-09-06T00:00:56.346Z,13.93
2022-09-06T00:03:23.171Z,13.90
2022-09-06T00:05:51.158Z,13.81
2022-09-06T00:08:17.995Z,13.86
2022-09-06T00:10:44.765Z,13.80
2022-09-06T00:13:11.788Z,13.68
2022-09-06T00:15:38.665Z,13.72
2022-09-06T00:18:07.027Z,13.82
2022-09-06T00:20:34.806Z,13.61
2022-09-06T00:23:05.977Z,13.65
2022-09-06T00:25:33.385Z,13.67
2022-09-06T00:28:05.415Z,13.63
2022-09-06T00:30:33.384Z,13.60
2022-09-06T00:33:00.259Z,13.71
2022-09-06T00:35:27.499Z,13.56
2022-09-06T00:37:59.005Z,13.54
2022-09-06T00:40:26.679Z,13.52
2022-09-06T00:42:53.467Z,13.51
2022-09-06T00:45:20.761Z,13.46
2022-09-06T00:47:47.870Z,13.39
2022-09-06T00:50:16.603Z,13.40
2022-09-06T00:52:45.205Z,13.50
2022-09-06T00:55:12.186Z,13.48
2022-09-06T00:57:39.375Z,13.47
2022-09-06T01:00:07.824Z,13.38
2022-09-06T01:02:34.764Z,13.43
2022-09-06T01:05:02.207Z,13.40
2022-09-06T01:07:50.146Z,13.27
2022-09-06T01:10:32.036Z,13.40
2022-09-06T01:13:14.665Z,13.33
2022-09-06T01:15:57.124Z,13.24
2022-09-06T01:18:32.775Z,13.27
2022-09-06T01:20:59.538Z,13.08
2022-09-06T01:24:01.301Z,13.00
2022-09-06T01:27:06.671Z,13.10
2022-09-06T01:29:37.224Z,13.15
2022-09-06T01:32:26.288Z,13.08
2022-09-06T01:34:59.231Z,13.03
2022-09-06T01:37:26.113Z,13.06
2022-09-06T01:39:52.972Z,13.11
2022-09-06T01:42:23.026Z,13.25
2022-09-06T01:44:56.598Z,13.03
2022-09-06T01:47:23.396Z,13.05
2022-09-06T01:50:21.072Z,13.04
2022-09-06T01:52:50.949Z,12.89
2022-09-06T01:55:27.664Z,12.97
2022-09-06T01:58:15.780Z,12.87
2022-09-06T02:01:01.409Z,12.84
2022-09-06T02:03:29.379Z,12.88
2022-09-06T02:06:10.363Z,12.84
2022-09-06T02:08:44.098Z,12.77
2022-09-06T02:11:11.185Z,12.79
2022-09-06T02:14:02.826Z,12.79
2022-09-06T02:16:31.008Z,12.73
2022-09-06T02:19:03.666Z,12.80
2022-09-06T02:21:32.754Z,12.67
2022-09-06T02:24:01.922Z,12.73
2022-09-06T02:26:31.043Z,12.69
2022-09-06T02:28:57.965Z,12.72
2022-09-06T02:31:29.584Z,12.72
2022-09-06T02:33:56.876Z,12.63
2022-09-06T02:36:23.887Z,12.64
2022-09-06T02:38:50.735Z,12.46
2022-09-06T02:41:21.202Z,12.52
2022-09-06T02:43:48.019Z,12.48
2022-09-06T02:46:15.007Z,12.58
2022-09-06T02:48:41.785Z,12.55
2022-09-06T02:51:09.676Z,12.60
2022-09-06T02:53:36.664Z,12.51
2022-09-06T02:56:03.928Z,12.64
2022-09-06T02:58:30.666Z,12.59
2022-09-06T03:00:57.929Z,12.59
2022-09-06T03:03:25.151Z,12.72
2022-09-06T03:05:53.471Z,12.74
2022-09-06T03:08:21.531Z,12.75
2022-09-06T03:10:56.254Z,12.77
2022-09-06T03:13:26.316Z,12.80
2022-09-06T03:15:57.709Z,12.79
2022-09-06T03:18:25.194Z,12.75
2022-09-06T03:20:53.814Z,12.80
2022-09-06T03:23:23.985Z,12.78
2022-09-06T03:25:50.784Z,12.72
2022-09-06T03:28:18.516Z,12.58
2022-09-06T03:30:46.601Z,12.72
2022-09-06T03:33:13.487Z,12.87
2022-09-06T03:35:40.195Z,12.73
2022-09-06T03:38:06.947Z,12.85
2022-09-06T03:40:33.737Z,12.85
2022-09-06T03:43:00.516Z,12.80
2022-09-06T03:45:27.237Z,12.72
2022-09-06T03:47:53.995Z,12.78
2022-09-06T03:50:20.706Z,12.73
2022-09-06T03:52:47.474Z,12.60
2022-09-06T03:55:14.336Z,12.58
2022-09-06T03:57:41.144Z,12.63
2022-09-06T04:00:08.796Z,12.69
2022-09-06T04:02:35.944Z,12.74
2022-09-06T04:05:02.858Z,12.68
2022-09-06T04:07:29.635Z,12.79
2022-09-06T04:09:56.416Z,12.81
2022-09-06T04:12:23.136Z,12.67
2022-09-06T04:14:50.009Z,12.76
2022-09-06T04:17:16.756Z,12.75
2022-09-06T04:19:43.536Z,12.78
2022-09-06T04:22:10.264Z,12.77
2022-09-06T04:24:37.010Z,12.75
2022-09-06T04:27:03.811Z,12.81
2022-09-06T04:29:30.555Z,12.82
2022-09-06T04:31:57.307Z,12.81
2022-09-06T04:34:24.104Z,12.74
2022-09-06T04:36:50.758Z,12.80
2022-09-06T04:39:17.381Z,12.87
2022-09-06T04:41:44.207Z,12.88
2022-09-06T04:44:10.863Z,12.93
2022-09-06T04:46:37.649Z,12.86
2022-09-06T04:49:04.331Z,12.89
2022-09-06T04:51:31.773Z,12.83
2022-09-06T04:53:58.460Z,12.92
2022-09-06T04:56:26.299Z,12.98
2022-09-06T04:58:54.469Z,13.05
2022-09-06T05:01:21.786Z,12.88
2022-09-06T05:03:48.748Z,12.73
2022-09-06T05:06:33.368Z,12.77
2022-09-06T05:09:00.009Z,12.78
2022-09-06T05:11:27.489Z,12.82
2022-09-06T05:13:54.188Z,12.69
2022-09-06T05:16:20.971Z,12.91
2022-09-06T05:18:47.839Z,12.81
2022-09-06T05:21:14.719Z,12.72
2022-09-06T05:23:41.661Z,12.68
2022-09-06T05:26:08.601Z,12.66
2022-09-06T05:28:35.622Z,12.61
2022-09-06T05:31:13.413Z,12.46
2022-09-06T05:33:40.183Z,12.51
2022-09-06T05:36:07.563Z,12.57
2022-09-06T05:38:34.460Z,12.67
2022-09-06T05:41:01.240Z,12.61
2022-09-06T05:43:28.065Z,12.59
2022-09-06T05:45:54.913Z,12.71
2022-09-06T05:48:21.840Z,12.75
2022-09-06T05:50:48.633Z,12.99
2022-09-06T05:53:15.462Z,12.94
2022-09-06T05:55:43.109Z,12.91
2022-09-06T05:58:10.163Z,13.02
2022-09-06T06:00:36.961Z,13.19
2022-09-06T06:03:03.760Z,13.22
2022-09-06T06:05:30.650Z,13.48
2022-09-06T06:07:59.061Z,13.39
2022-09-06T06:10:25.976Z,13.10
2022-09-06T06:12:52.737Z,12.74
2022-09-06T06:15:19.562Z,12.76
2022-09-06T06:17:46.352Z,12.86
2022-09-06T06:20:13.198Z,12.98
2022-09-06T06:22:39.936Z,13.03
2022-09-06T06:25:07.081Z,13.32
2022-09-06T06:27:34.953Z,13.57
2022-09-06T06:30:01.833Z,14.01
2022-09-06T06:32:28.572Z,14.32
2022-09-06T06:34:55.353Z,14.23
2022-09-06T06:37:22.201Z,14.38
2022-09-06T06:39:49.115Z,14.55
2022-09-06T06:42:16.320Z,14.56
2022-09-06T06:44:43.131Z,14.83
2022-09-06T06:47:09.951Z,14.73
2022-09-06T06:49:36.720Z,14.76
2022-09-06T06:52:03.733Z,14.83
2022-09-06T06:54:30.541Z,14.74
2022-09-06T06:56:57.321Z,14.71
2022-09-06T06:59:24.091Z,15.06
2022-09-06T07:01:51.115Z,15.31
2022-09-06T07:04:17.973Z,15.61
2022-09-06T07:12:29.251Z,16.41
2022-09-06T07:14:56.001Z,16.28
2022-09-06T07:17:22.881Z,16.57
2022-09-06T07:22:37.373Z,17.18
2022-09-06T07:25:05.283Z,17.43
2022-09-06T07:27:48.488Z,17.64
2022-09-06T07:30:16.291Z,17.88
2022-09-06T07:32:43.140Z,17.98
2022-09-06T07:35:10.133Z,18.34
2022-09-06T07:37:37.231Z,18.28
2022-09-06T07:40:04.760Z,17.83
2022-09-06T07:42:36.146Z,18.18
2022-09-06T07:45:04.719Z,18.31
2022-09-06T07:53:12.690Z,18.55
2022-09-06T07:55:42.903Z,18.85
2022-09-06T07:58:09.756Z,19.12
2022-09-06T08:00:36.792Z,18.74
2022-09-06T08:03:03.811Z,19.32
2022-09-06T08:11:04.483Z,20.03
2022-09-06T08:13:31.402Z,19.81
2022-09-06T08:16:02.670Z,20.40
2022-09-06T08:18:29.652Z,20.15
2022-09-06T08:20:56.593Z,20.75
2022-09-06T08:23:23.514Z,20.89
2022-09-06T08:25:59.915Z,20.71
2022-09-06T08:28:28.902Z,20.92
2022-09-06T08:30:56.052Z,20.93
2022-09-06T08:33:25.640Z,21.19
2022-09-06T08:35:59.295Z,21.13
2022-09-06T08:38:27.483Z,21.53
2022-09-06T08:40:55.533Z,21.30
2022-09-06T08:43:23.179Z,21.12
2022-09-06T08:45:56.461Z,22.06
2022-09-06T08:48:24.951Z,22.10
2022-09-06T08:51:02.422Z,22.01
2022-09-06T08:53:29.310Z,21.95
2022-09-06T08:56:01.304Z,21.72
2022-09-06T08:58:34.142Z,21.93
2022-09-06T09:01:14.052Z,22.20
2022-09-06T09:03:43.046Z,21.98
2022-09-06T09:06:10.823Z,22.36
2022-09-06T09:08:44.386Z,22.62
2022-09-06T09:11:16.816Z,22.76
2022-09-06T09:14:17.513Z,22.54
2022-09-06T09:16:44.493Z,22.91
2022-09-06T09:19:11.492Z,22.94
2022-09-06T09:21:40.225Z,23.17
2022-09-06T09:24:10.033Z,23.22
2022-09-06T09:26:51.275Z,23.38
2022-09-06T09:29:18.431Z,23.28
2022-09-06T09:31:53.686Z,23.00
2022-09-06T09:34:35.568Z,23.58
2022-09-06T09:40:06.012Z,23.65
2022-09-06T09:42:35.373Z,23.73
2022-09-06T09:45:03.993Z,23.25
2022-09-06T09:47:32.752Z,24.07
2022-09-06T09:49:59.941Z,24.25
2022-09-06T09:52:31.434Z,24.09
2022-09-06T09:55:01.778Z,23.23
2022-09-06T09:57:30.592Z,24.10
2022-09-06T10:00:01.219Z,23.92
2022-09-06T10:02:35.936Z,23.97
2022-09-06T10:05:22.991Z,24.28
2022-09-06T10:07:57.224Z,24.76
2022-09-06T10:10:34.415Z,24.72
2022-09-06T10:13:20.742Z,24.55
2022-09-06T10:15:48.753Z,24.51
2022-09-06T10:18:29.853Z,24.23
2022-09-06T10:21:24.243Z,24.06
2022-09-06T10:26:58.604Z,24.66
2022-09-06T10:29:37.446Z,24.92
2022-09-06T10:32:30.384Z,25.25
2022-09-06T10:35:05.358Z,25.60
2022-09-06T10:37:53.519Z,25.32
2022-09-06T10:40:49.341Z,25.14
2022-09-06T10:43:20.591Z,25.10
2022-09-06T10:46:03.347Z,25.44
2022-09-06T10:48:36.222Z,25.28
2022-09-06T10:51:40.822Z,24.54
2022-09-06T10:54:13.121Z,24.12
2022-09-06T10:56:53.558Z,23.95
2022-09-06T10:59:46.817Z,24.19
2022-09-06T11:02:41.401Z,23.78
2022-09-06T11:05:38.358Z,24.17
2022-09-06T11:11:04.911Z,24.42
2022-09-06T11:13:32.581Z,24.45
2022-09-06T11:16:09.724Z,24.73
2022-09-06T11:19:01.008Z,24.98
2022-09-06T11:21:46.183Z,25.08
2022-09-06T11:24:14.930Z,24.97
2022-09-06T11:27:09.613Z,25.01
2022-09-06T11:29:40.984Z,24.98
2022-09-06T11:32:26.201Z,25.19
2022-09-06T11:35:01.460Z,25.14
2022-09-06T11:37:49.735Z,25.10
2022-09-06T11:42:51.623Z,25.68
2022-09-06T11:45:40.049Z,26.35
2022-09-06T11:48:34.100Z,26.01
2022-09-06T11:51:07.319Z,25.97
2022-09-06T11:53:59.755Z,25.33
2022-09-06T11:56:32.055Z,24.91
2022-09-06T11:59:17.807Z,24.69
2022-09-06T12:01:56.518Z,24.71
2022-09-06T12:04:23.898Z,25.08
2022-09-06T12:07:12.768Z,25.16
2022-09-06T12:09:43.435Z,25.46
2022-09-06T12:12:16.199Z,25.38
2022-09-06T12:14:46.968Z,25.03
2022-09-06T12:17:13.675Z,24.83
2022-09-06T12:19:59.570Z,24.85
2022-09-06T12:22:40.375Z,24.90
2022-09-06T12:25:34.550Z,24.86
2022-09-06T12:28:22.540Z,24.65
2022-09-06T12:30:50.793Z,24.80
2022-09-06T12:33:38.962Z,24.91
2022-09-06T12:36:18.847Z,25.29
2022-09-06T12:39:03.547Z,25.69
2022-09-06T12:41:32.878Z,25.38
2022-09-06T12:44:00.927Z,25.52
2022-09-06T12:46:29.715Z,25.65
2022-09-06T12:49:08.757Z,25.39
2022-09-06T12:51:37.356Z,25.11
2022-09-06T12:54:15.757Z,25.00
2022-09-06T12:56:42.667Z,24.83
2022-09-06T12:59:27.208Z,25.01
2022-09-06T13:02:15.611Z,25.03
2022-09-06T13:04:44.528Z,24.93
2022-09-06T13:07:14.450Z,24.95
2022-09-06T13:09:43.427Z,25.04
2022-09-06T13:12:21.700Z,25.24
2022-09-06T13:14:53.007Z,25.43
2022-09-06T13:17:24.616Z,25.38
2022-09-06T13:19:51.487Z,25.25
2022-09-06T13:23:00.597Z,24.82
2022-09-06T13:25:27.317Z,24.74
2022-09-06T13:27:58.387Z,25.05
2022-09-06T13:30:41.990Z,25.18
2022-09-06T13:33:24.549Z,25.06
2022-09-06T13:36:05.943Z,25.16
2022-09-06T13:38:41.560Z,25.05
2022-09-06T13:41:26.358Z,25.20
2022-09-06T13:44:01.347Z,25.16
2022-09-06T13:46:28.092Z,25.35
2022-09-06T13:48:58.048Z,25.37
2022-09-06T13:51:26.592Z,25.46
2022-09-06T13:54:10.869Z,25.50
2022-09-06T13:56:39.331Z,25.61
2022-09-06T13:59:06.748Z,25.69
2022-09-06T14:01:33.875Z,26.03
2022-09-06T14:04:00.678Z,26.13
2022-09-06T14:06:27.458Z,25.92
2022-09-06T14:09:06.838Z,25.95
2022-09-06T14:11:34.740Z,25.82
2022-09-06T14:14:01.557Z,26.08
2022-09-06T14:16:28.456Z,26.21
2022-09-06T14:18:55.305Z,26.46
2022-09-06T14:21:22.155Z,26.20
2022-09-06T14:23:53.179Z,25.93
2022-09-06T14:26:21.313Z,26.07
2022-09-06T14:28:48.799Z,25.82
2022-09-06T14:31:16.842Z,25.43
2022-09-06T14:33:43.698Z,25.50
2022-09-06T14:36:12.947Z,25.36
2022-09-06T14:38:41.007Z,25.56
2022-09-06T14:41:09.077Z,25.76
2022-09-06T14:43:36.788Z,25.73
2022-09-06T14:46:12.508Z,25.55
2022-09-06T14:48:42.426Z,25.35
2022-09-06T14:51:17.898Z,24.93
2022-09-06T14:53:45.454Z,25.08
2022-09-06T14:56:13.099Z,25.05
2022-09-06T14:58:40.683Z,24.88
2022-09-06T15:01:13.258Z,24.71
2022-09-06T15:03:46.577Z,24.47
2022-09-06T15:06:13.428Z,24.50
2022-09-06T15:08:40.288Z,24.47
2022-09-06T15:11:08.399Z,24.41
2022-09-06T15:13:40.370Z,24.34
2022-09-06T15:16:08.818Z,24.39
2022-09-06T15:18:35.874Z,24.61
2022-09-06T15:21:13.528Z,24.67
2022-09-06T15:23:41.115Z,24.86
2022-09-06T15:26:08.839Z,24.87
2022-09-06T15:28:37.131Z,24.80
2022-09-06T15:31:04.811Z,24.95
2022-09-06T15:33:32.689Z,24.84
2022-09-06T15:36:00.732Z,24.71
2022-09-06T15:38:27.568Z,24.57
2022-09-06T15:41:07.970Z,24.29
2022-09-06T15:43:36.198Z,24.06
2022-09-06T15:46:03.490Z,23.89
2022-09-06T15:48:40.843Z,23.68
2022-09-06T15:51:07.788Z,23.46
2022-09-06T15:53:34.708Z,23.41
2022-09-06T15:56:02.748Z,23.32
2022-09-06T15:58:29.759Z,23.25
2022-09-06T16:01:07.780Z,23.02
2022-09-06T16:03:40.717Z,22.91
2022-09-06T16:06:28.802Z,22.90
2022-09-06T16:09:06.917Z,22.78
2022-09-06T16:11:36.674Z,22.75
2022-09-06T16:14:05.561Z,22.37
2022-09-06T16:16:32.921Z,22.31
2022-09-06T16:19:00.294Z,22.22
2022-09-06T16:21:32.422Z,22.10
2022-09-06T16:24:05.019Z,22.27
2022-09-06T16:26:34.688Z,22.01
2022-09-06T16:29:01.940Z,21.74
2022-09-06T16:31:29.628Z,21.72
2022-09-06T16:33:57.967Z,21.89
2022-09-06T16:36:25.437Z,21.88
2022-09-06T16:38:52.592Z,21.98
2022-09-06T16:41:24.068Z,21.87
2022-09-06T16:43:52.478Z,21.87
2022-09-06T16:46:23.770Z,21.82
2022-09-06T16:48:57.699Z,21.76
2022-09-06T16:51:27.948Z,21.60
2022-09-06T16:53:55.762Z,21.61
2022-09-06T16:56:27.908Z,21.37
2022-09-06T16:58:56.770Z,21.27
2022-09-06T17:01:25.147Z,21.17
2022-09-06T17:03:52.489Z,21.20
2022-09-06T17:06:19.708Z,21.20
2022-09-06T17:08:46.851Z,21.16
2022-09-06T17:11:16.170Z,21.20
2022-09-06T17:13:44.297Z,21.06
2022-09-06T17:16:30.222Z,20.92
2022-09-06T17:18:59.888Z,20.87
2022-09-06T17:21:27.373Z,20.84
2022-09-06T17:23:54.288Z,20.69
2022-09-06T17:26:22.237Z,20.57
2022-09-06T17:28:50.389Z,20.62
2022-09-06T17:31:22.261Z,20.55
2022-09-06T17:33:52.380Z,20.57
2022-09-06T17:36:23.732Z,20.50
2022-09-06T17:38:53.362Z,20.41
2022-09-06T17:41:36.706Z,20.33
2022-09-06T17:44:05.729Z,20.12
2022-09-06T17:46:32.968Z,20.16
2022-09-06T17:48:59.878Z,20.20
2022-09-06T17:51:26.558Z,19.83
2022-09-06T17:53:53.493Z,19.79
2022-09-06T17:56:21.151Z,19.64
2022-09-06T17:58:55.803Z,19.55
2022-09-06T18:01:24.277Z,19.31
2022-09-06T18:03:51.377Z,19.28
2022-09-06T18:06:23.256Z,19.30
2022-09-06T18:08:52.796Z,19.43
2022-09-06T18:11:23.531Z,19.40
2022-09-06T18:13:57.502Z,19.39
2022-09-06T18:16:24.838Z,19.46
2022-09-06T18:18:53.796Z,19.44
2022-09-06T18:21:21.190Z,19.42
2022-09-06T18:23:48.148Z,19.34
2022-09-06T18:26:14.980Z,19.28
2022-09-06T18:28:41.751Z,19.19
2022-09-06T18:31:11.528Z,19.13
2022-09-06T18:33:39.628Z,19.18
2022-09-06T18:36:07.590Z,19.05
2022-09-06T18:38:38.788Z,19.08
2022-09-06T18:41:07.735Z,19.06
2022-09-06T18:43:42.576Z,19.04
2022-09-06T18:46:12.875Z,18.92
2022-09-06T18:48:40.779Z,18.77
2022-09-06T18:51:11.550Z,18.85
2022-09-06T18:53:43.997Z,18.68
2022-09-06T18:56:13.431Z,18.64
2022-09-06T18:58:40.907Z,18.51
2022-09-06T19:01:18.524Z,18.48
2022-09-06T19:03:45.457Z,18.37
2022-09-06T19:06:14.669Z,18.33
2022-09-06T19:08:42.262Z,18.36
2022-09-06T19:11:16.588Z,18.22
2022-09-06T19:13:44.735Z,18.14
2022-09-06T19:16:13.593Z,18.11
2022-09-06T19:18:41.439Z,18.02
2022-09-06T19:21:10.616Z,17.93
2022-09-06T19:23:40.118Z,17.88
2022-09-06T19:26:13.721Z,17.89
2022-09-06T19:28:40.907Z,17.79
2022-09-06T19:31:15.975Z,17.77
2022-09-06T19:33:44.988Z,17.85
2022-09-06T19:36:12.690Z,17.86
2022-09-06T19:39:02.569Z,17.67
2022-09-06T19:41:28.446Z,17.68
2022-09-06T19:43:56.327Z,17.59
2022-09-06T19:46:24.005Z,17.57
2022-09-06T19:48:52.838Z,17.47
2022-09-06T19:51:20.093Z,17.52
2022-09-06T19:53:55.067Z,17.41
2022-09-06T19:56:26.714Z,17.41
2022-09-06T19:58:55.722Z,17.45
2022-09-06T20:01:23.610Z,17.39
2022-09-06T20:03:50.820Z,17.46
2022-09-06T20:06:17.683Z,17.39
2022-09-06T20:08:44.544Z,17.20
2022-09-06T20:11:15.551Z,17.19
2022-09-06T20:13:42.885Z,17.23
2022-09-06T20:16:10.353Z,17.22
2022-09-06T20:18:37.885Z,17.28
2022-09-06T20:21:05.488Z,17.16
2022-09-06T20:23:34.446Z,17.18
2022-09-06T20:26:06.405Z,17.13
2022-09-06T20:28:33.686Z,17.08
2022-09-06T20:31:02.507Z,17.00
2022-09-06T20:33:29.778Z,16.95
2022-09-06T20:36:02.876Z,16.99
2022-09-06T20:38:30.910Z,16.80
2022-09-06T20:41:08.960Z,16.80
2022-09-06T20:43:36.927Z,16.72
2022-09-06T20:46:05.934Z,16.79
2022-09-06T20:48:33.556Z,16.74
2022-09-06T20:51:02.315Z,16.71
2022-09-06T20:53:30.394Z,16.45
2022-09-06T20:56:05.830Z,16.67
2022-09-06T20:58:33.127Z,16.75
2022-09-06T21:01:00.202Z,16.75
2022-09-06T21:03:27.072Z,16.66
2022-09-06T21:05:54.310Z,16.64
2022-09-06T21:08:20.979Z,16.67
2022-09-06T21:10:47.779Z,16.61
2022-09-06T21:13:14.469Z,16.50
2022-09-06T21:15:41.216Z,16.45
2022-09-06T21:18:09.307Z,16.48
2022-09-06T21:20:36.304Z,16.60
2022-09-06T21:23:03.578Z,16.43
2022-09-06T21:25:30.308Z,16.44
2022-09-06T21:27:57.369Z,16.45
2022-09-06T21:30:24.236Z,16.47
2022-09-06T21:32:53.940Z,16.50
2022-09-06T21:35:20.652Z,16.47
2022-09-06T21:37:47.426Z,16.55
2022-09-06T21:40:14.159Z,16.63
2022-09-06T21:42:40.930Z,16.72
2022-09-06T21:45:07.918Z,16.72
2022-09-06T21:47:34.621Z,16.79
2022-09-06T21:50:01.305Z,16.80
2022-09-06T21:52:32.463Z,16.72
2022-09-06T21:54:59.542Z,16.53
2022-09-06T21:57:26.266Z,16.41
2022-09-06T21:59:52.998Z,16.44
2022-09-06T22:02:20.514Z,16.48
2022-09-06T22:04:47.317Z,16.46
2022-09-06T22:07:14.004Z,16.35
2022-09-06T22:09:40.732Z,16.40
2022-09-06T22:12:07.524Z,16.35
2022-09-06T22:14:34.164Z,16.28
2022-09-06T22:17:00.908Z,16.18
2022-09-06T22:19:27.554Z,16.27
2022-09-06T22:21:54.583Z,16.21
2022-09-06T22:24:21.234Z,16.13
2022-09-06T22:26:47.946Z,16.21
2022-09-06T22:29:15.591Z,16.27
2022-09-06T22:31:42.595Z,16.14
2022-09-06T22:34:10.511Z,16.01
2022-09-06T22:36:37.628Z,16.02
2022-09-06T22:39:04.529Z,16.02
2022-09-06T22:41:32.315Z,15.99
2022-09-06T22:44:02.966Z,15.93
2022-09-06T22:46:29.738Z,15.87
2022-09-06T22:48:56.456Z,15.68
2022-09-06T22:51:23.174Z,15.57
2022-09-06T22:53:50.163Z,15.64
2022-09-06T22:56:16.979Z,15.63
2022-09-06T22:58:43.679Z,15.65
2022-09-06T23:01:12.583Z,15.61
2022-09-06T23:03:39.543Z,15.50
2022-09-06T23:06:06.670Z,15.63
2022-09-06T23:08:36.792Z,15.55
2022-09-06T23:11:08.880Z,15.55
2022-09-06T23:13:35.651Z,15.46
2022-09-06T23:16:10.690Z,15.53
2022-09-06T23:18:37.530Z,15.51
2022-09-06T23:21:08.886Z,15.39
2022-09-06T23:23:36.778Z,15.25
2022-09-06T23:26:09.330Z,15.33
2022-09-06T23:28:36.627Z,15.37
2022-09-06T23:31:14.621Z,15.30
2022-09-06T23:33:42.109Z,15.26
2022-09-06T23:36:13.409Z,15.19
2022-09-06T23:38:41.308Z,15.18
2022-09-06T23:41:11.277Z,15.19
2022-09-06T23:43:39.316Z,15.12
2022-09-06T23:46:06.576Z,15.16
2022-09-06T23:48:33.686Z,15.16
2022-09-06T23:51:00.678Z,15.10
2022-09-06T23:53:27.745Z,15.13
2022-09-06T23:55:54.568Z,15.13
2022-09-06T23:58:21.359Z,15.15
